Hlavní strana
METAR-TAF:

METAR-TAF

Letiště :

Kastamonu, Turecko

zeměpisná šířka: 41-19-01N, zeměpisná délka: 33-47-46E, výška: 1073 m

Aktuální stav počasí

Zpráva byla vytvořena před 3 hodinami a 54 minutami, v 11:50 UTC
Jihozápadní vítr 10 kt
Teplota -7°C
Vlhkost vzduchu 79%
Tlak 1012 hPa
Viditelnost: 6000 m
Polojasno ve výšce 1000 ft
Oblačno až skoro zataženo ve výšce 2500 ft

METAR: LTAL 181150Z 22010KT 6000 SCT010 BKN025 M07/M10 Q1012

Čas: 18:44 (15:44 UTC)

Předpověď počasí

Zpráva byla vytvořena před 2 hodinami a 4 minutami, v 13:40 UTC
Předpověď platná od 18 v 15 UTC do 18 v 24 UTC
Jihozápadní vítr 12 kt
Viditelnost: 6000 m
Polojasno ve výšce 3000 ft
Oblačno až skoro zataženo ve výšce 10000 ft

TAF: LTAL 181340Z 1815/1824 23012KT 6000 SCT030 BKN100

Stav a předpovědi počasí z více než 4 000 letišť (zprávy METAR a TAF).

Červené a žluté tečky na mapě představují dostupné meteorologické stanice.

Když kurzor umístíte na tečku, zobrazí se název stanice.

Pak kliknutím zobrazíte stav a předpověď počasí.

Chcete-li změnit mapu, kliknutím na zelené tlačítko se znaménkem +mapu přiblížíte, kliknutím na zelené tlačítko se znaménkem – mapu oddálíte a kliknutím na zelené šipky přejdete na sousední mapy.


METAR-TAF: